createdAt,value
2017-10-12T15:17:33.412Z,1048
2017-10-12T15:18:12.641Z,1176
2017-10-12T15:18:53.094Z,1276
2017-10-12T15:19:33.852Z,1256
2017-10-12T15:20:14.626Z,1228
2017-10-12T15:20:54.979Z,1212
2017-10-12T15:21:36.013Z,1104
2017-10-12T15:22:16.426Z,1132
2017-10-12T15:22:56.924Z,1080
2017-10-12T15:23:37.596Z,1084
2017-10-12T15:24:18.289Z,1020
2017-10-12T15:24:58.674Z,1008
2017-10-12T15:25:39.157Z,968
2017-10-12T15:26:19.802Z,944
2017-10-12T15:27:00.294Z,908
2017-10-12T15:27:40.743Z,908
2017-10-12T15:28:21.880Z,900
2017-10-12T15:29:02.495Z,872
2017-10-12T15:29:43.065Z,812
2017-10-12T15:30:24.405Z,792
2017-10-12T15:31:05.124Z,784
2017-10-12T15:31:45.887Z,792
2017-10-12T15:32:41.215Z,804
2017-10-12T15:33:21.938Z,768
2017-10-12T15:34:02.598Z,736
2017-10-12T15:34:43.145Z,744
2017-10-12T15:35:23.599Z,772
2017-10-12T15:36:05.121Z,764
2017-10-12T15:36:48.279Z,756
2017-10-12T15:37:28.811Z,752
2017-10-12T15:38:09.226Z,732
2017-10-12T15:38:49.720Z,708
2017-10-12T15:40:04.288Z,700
2017-10-12T15:40:46.198Z,704
2017-10-12T15:41:26.640Z,700
2017-10-12T15:42:07.463Z,680
2017-10-12T15:42:47.817Z,664
2017-10-12T15:43:29.256Z,644
2017-10-12T15:44:09.584Z,632
2017-10-12T15:44:50.780Z,612
2017-10-12T15:45:31.325Z,588
2017-10-12T15:46:12.247Z,576
2017-10-12T15:46:52.848Z,576
2017-10-12T15:47:33.460Z,568
2017-10-12T15:48:14.101Z,564
2017-10-12T15:48:54.837Z,556
2017-10-12T15:49:35.334Z,548
2017-10-12T15:50:16.135Z,552
2017-10-12T15:50:56.758Z,560
2017-10-12T15:51:37.463Z,556
2017-10-12T15:52:19.252Z,552
2017-10-12T15:52:59.108Z,540
2017-10-12T15:53:39.639Z,536
2017-10-12T15:54:19.984Z,528
2017-10-12T15:55:00.483Z,512
2017-10-12T15:55:41.270Z,504
2017-10-12T15:56:21.691Z,500
2017-10-12T15:57:02.425Z,492
2017-10-12T15:57:43.058Z,488
2017-10-12T15:58:23.529Z,480
2017-10-12T15:59:04.050Z,476
2017-10-12T15:59:44.439Z,472
2017-10-12T16:00:24.951Z,464
2017-10-12T16:01:05.526Z,456
2017-10-12T16:01:46.617Z,448
2017-10-12T16:02:27.450Z,444
2017-10-12T16:03:08.639Z,432
2017-10-12T16:03:49.103Z,420
2017-10-12T16:04:29.830Z,408
2017-10-12T16:05:10.166Z,400
2017-10-12T16:05:50.657Z,392
2017-10-12T16:06:31.080Z,384
2017-10-12T16:07:11.842Z,376
2017-10-12T16:07:52.373Z,368
2017-10-12T16:08:32.777Z,360
2017-10-12T16:09:13.308Z,352
2017-10-12T16:09:58.696Z,348
2017-10-12T16:10:54.333Z,332
2017-10-12T16:11:40.065Z,320
2017-10-12T16:12:20.612Z,308
2017-10-12T16:13:01.118Z,304
2017-10-12T16:13:41.599Z,292
2017-10-12T16:14:22.174Z,288
2017-10-12T16:15:03.496Z,276
2017-10-12T16:15:43.862Z,268
2017-10-12T16:16:24.534Z,256
2017-10-12T16:17:05.100Z,248
2017-10-12T16:17:45.748Z,236
2017-10-12T16:18:26.544Z,232
2017-10-12T16:19:06.846Z,224
2017-10-12T16:19:47.243Z,212
2017-10-12T16:20:27.754Z,204
2017-10-12T16:21:08.152Z,196
2017-10-12T16:21:49.226Z,192
2017-10-12T16:22:59.639Z,180
2017-10-12T16:23:10.154Z,176
2017-10-12T16:23:50.812Z,168
2017-10-12T16:24:31.419Z,160
2017-10-12T16:25:12.255Z,152
2017-10-12T16:28:09.507Z,128
2017-10-12T16:28:50.538Z,120
2017-10-12T16:29:31.326Z,116
2017-10-12T16:30:11.802Z,112
2017-10-12T16:30:52.250Z,108
2017-10-12T16:31:33.008Z,104
2017-10-12T16:32:13.344Z,96
2017-10-12T16:33:09.271Z,96
2017-10-12T16:33:34.850Z,92
2017-10-12T16:34:15.207Z,84
2017-10-12T16:34:55.788Z,80
2017-10-12T16:35:36.366Z,80
2017-10-12T16:36:16.880Z,76
2017-10-12T16:36:57.330Z,72
2017-10-12T16:38:18.734Z,64
2017-10-12T16:38:59.506Z,60
2017-10-12T16:39:40.078Z,56
2017-10-12T16:40:20.573Z,56
2017-10-12T16:41:01.379Z,52
2017-10-12T16:41:43.466Z,52
2017-10-12T16:42:25.573Z,48
2017-10-12T16:43:06.015Z,48
2017-10-12T16:43:46.420Z,40
2017-10-12T16:44:26.897Z,40
2017-10-12T16:45:07.338Z,40
2017-10-12T16:45:47.845Z,36
2017-10-12T16:46:28.279Z,32
2017-10-12T16:47:08.686Z,36
2017-10-12T16:47:49.157Z,32
2017-10-12T16:48:29.519Z,32
2017-10-12T16:49:09.924Z,28
2017-10-12T16:49:50.402Z,24
2017-10-12T16:51:11.270Z,24
2017-10-12T16:51:51.708Z,24
2017-10-12T16:52:32.111Z,20
2017-10-12T16:53:12.499Z,20
2017-10-12T16:53:52.956Z,16
2017-10-12T16:54:33.501Z,16
2017-10-12T16:55:13.906Z,16
2017-10-12T16:55:54.355Z,16
2017-10-12T16:56:34.719Z,16
2017-10-12T16:57:15.188Z,12
2017-10-12T16:58:35.959Z,12
2017-10-12T16:59:16.351Z,8
2017-10-12T16:59:56.807Z,4
2017-10-12T17:00:37.152Z,4
2017-10-12T17:01:17.593Z,8
2017-10-12T17:01:58.018Z,4
2017-10-12T17:02:38.384Z,4
2017-10-12T17:03:18.846Z,4
2017-10-12T17:03:59.276Z,4
2017-10-12T17:04:39.774Z,4
2017-10-12T17:05:20.230Z,0
2017-10-12T17:06:00.725Z,0
2017-10-12T17:06:41.068Z,4
2017-10-12T17:07:21.577Z,0
2017-10-12T17:08:01.958Z,0
2017-10-12T17:08:42.365Z,4
2017-10-12T17:09:22.757Z,0
2017-10-12T17:10:03.184Z,0
2017-10-12T17:10:43.564Z,0
2017-10-12T17:11:23.963Z,0
2017-10-12T17:12:04.387Z,0
2017-10-12T17:12:44.804Z,0
2017-10-12T17:13:25.196Z,0
2017-10-12T17:14:05.683Z,0
2017-10-12T17:14:46.072Z,0
2017-10-12T17:15:26.518Z,0
2017-10-12T17:16:06.897Z,0
2017-10-12T17:16:47.331Z,0
2017-10-12T17:17:27.814Z,0
2017-10-12T17:18:08.278Z,0
2017-10-12T17:18:48.638Z,0
2017-10-12T17:19:29.018Z,0
2017-10-12T17:20:09.408Z,0
2017-10-12T17:20:49.880Z,0
2017-10-12T17:21:30.312Z,0
2017-10-12T17:22:10.711Z,0
2017-10-12T17:22:51.137Z,0
2017-10-12T17:24:11.924Z,0
2017-10-12T17:24:52.356Z,0
2017-10-12T17:25:32.768Z,0
2017-10-12T17:26:13.228Z,0
2017-10-12T17:26:53.586Z,0
2017-10-12T17:27:34.096Z,0
2017-10-12T17:28:14.508Z,0
2017-10-12T17:28:54.849Z,0
2017-10-12T17:29:35.267Z,0
2017-10-12T17:30:15.703Z,0
2017-10-12T17:30:56.134Z,0
2017-10-12T17:31:36.556Z,0
2017-10-12T17:32:17.017Z,0
2017-10-12T17:32:57.501Z,0
2017-10-12T17:33:37.939Z,0
2017-10-12T17:34:18.396Z,0
2017-10-12T17:34:58.843Z,0
2017-10-12T17:35:39.315Z,0
2017-10-12T17:36:19.744Z,0
2017-10-12T17:37:00.212Z,0
2017-10-12T17:37:40.675Z,0
2017-10-12T17:38:21.051Z,0
2017-10-12T17:39:01.460Z,0
2017-10-12T17:39:41.904Z,0
2017-10-12T17:40:22.257Z,0
2017-10-12T17:41:02.710Z,0
2017-10-12T17:41:43.097Z,0
2017-10-12T17:42:23.537Z,0
2017-10-12T17:43:03.930Z,0
2017-10-12T17:43:44.377Z,0
2017-10-12T17:44:24.772Z,0
2017-10-12T17:45:05.178Z,0
2017-10-12T17:45:45.626Z,0
2017-10-12T17:47:06.524Z,0
2017-10-12T17:47:46.924Z,0
2017-10-12T17:48:27.356Z,0
2017-10-12T17:49:07.814Z,0
2017-10-12T17:49:48.149Z,0
2017-10-12T17:50:28.566Z,0
2017-10-12T17:51:08.996Z,0
2017-10-12T17:51:49.397Z,0
2017-10-12T17:52:29.892Z,0
2017-10-12T17:53:10.289Z,0
2017-10-12T17:53:50.743Z,0
2017-10-12T17:55:11.695Z,0
2017-10-12T17:55:52.093Z,0
2017-10-12T17:56:32.480Z,0
2017-10-12T17:57:12.936Z,0
2017-10-12T17:57:53.381Z,0
2017-10-12T17:58:33.795Z,0
2017-10-12T17:59:14.187Z,0
2017-10-12T17:59:54.665Z,0
2017-10-12T18:00:35.041Z,0
2017-10-12T18:01:15.532Z,0
2017-10-12T18:01:55.985Z,0
2017-10-12T18:02:36.367Z,0
2017-10-12T18:03:16.818Z,0
2017-10-12T18:03:57.219Z,0
2017-10-12T18:04:44.761Z,0
2017-10-12T18:05:18.054Z,0
2017-10-12T18:05:58.522Z,0
2017-10-12T18:06:38.849Z,0
2017-10-12T18:07:19.220Z,0
2017-10-12T18:07:59.624Z,0
2017-10-12T18:08:40.075Z,0
2017-10-12T18:09:20.617Z,0
2017-10-12T18:10:01.054Z,0
2017-10-12T18:10:41.567Z,0
2017-10-12T18:11:21.937Z,0
2017-10-12T18:12:42.789Z,0
2017-10-12T18:13:23.200Z,0
2017-10-12T18:14:03.626Z,0
2017-10-12T18:14:44.000Z,0
2017-10-12T18:15:24.431Z,0
2017-10-12T18:16:04.864Z,0
2017-10-12T18:16:45.322Z,0
2017-10-12T18:17:25.712Z,0
2017-10-12T18:18:06.132Z,0
2017-10-12T18:18:46.529Z,0
2017-10-12T18:19:26.987Z,0
2017-10-12T18:20:07.320Z,0
2017-10-12T18:20:47.739Z,0
2017-10-12T18:21:28.254Z,0
2017-10-12T18:22:08.663Z,0
2017-10-12T18:22:49.113Z,0
2017-10-12T18:23:29.555Z,0
2017-10-12T18:24:09.960Z,0
2017-10-12T18:24:50.349Z,0
2017-10-12T18:25:30.804Z,0
2017-10-12T18:26:11.294Z,0
2017-10-12T18:26:51.699Z,0
2017-10-12T18:27:32.129Z,0
2017-10-12T18:28:12.506Z,0
2017-10-12T18:28:52.980Z,0
2017-10-12T18:29:33.396Z,0
2017-10-12T18:30:13.952Z,0
2017-10-12T18:30:54.326Z,0
2017-10-12T18:31:34.747Z,0
2017-10-12T18:32:15.198Z,0
2017-10-12T18:32:55.533Z,0
2017-10-12T18:33:35.976Z,0
2017-10-12T18:34:16.364Z,0
2017-10-12T18:34:56.794Z,0
2017-10-12T18:35:37.219Z,0
2017-10-12T18:36:17.730Z,0
2017-10-12T18:36:58.214Z,0
2017-10-12T18:37:38.590Z,0
2017-10-12T18:38:19.026Z,0
2017-10-12T18:38:59.379Z,0
2017-10-12T18:39:39.911Z,0
2017-10-12T18:40:20.257Z,0
2017-10-12T18:41:00.681Z,0
2017-10-12T18:41:41.113Z,0
2017-10-12T18:42:21.582Z,0
2017-10-12T18:43:01.969Z,0
2017-10-12T18:43:42.388Z,0
2017-10-12T18:44:22.780Z,0
2017-10-12T18:45:03.201Z,0
2017-10-12T18:45:43.595Z,0
2017-10-12T18:46:23.967Z,0
2017-10-12T18:47:04.451Z,0
2017-10-12T18:47:44.819Z,0
2017-10-12T18:48:25.298Z,0
2017-10-12T18:49:05.772Z,0
2017-10-12T18:49:46.197Z,0
2017-10-12T18:50:26.586Z,0
2017-10-12T18:51:07.056Z,0
2017-10-12T18:51:47.452Z,0
2017-10-12T18:53:08.285Z,0
2017-10-12T18:53:48.737Z,0
2017-10-12T18:54:29.128Z,0
2017-10-12T18:55:09.533Z,0
2017-10-12T18:55:49.922Z,0
2017-10-12T18:56:30.381Z,0
2017-10-12T18:57:10.891Z,0
2017-10-12T18:57:51.272Z,0
2017-10-12T18:58:31.674Z,0
2017-10-12T18:59:12.086Z,0
2017-10-12T18:59:52.565Z,0
2017-10-12T19:00:33.011Z,0
2017-10-12T19:01:13.348Z,0
2017-10-12T19:01:53.845Z,0
2017-10-12T19:02:34.236Z,0
2017-10-12T19:03:14.688Z,0
2017-10-12T19:03:55.090Z,0
2017-10-12T19:04:35.625Z,0
2017-10-12T19:05:15.952Z,0
2017-10-12T19:05:56.349Z,0
2017-10-12T19:06:36.783Z,0
2017-10-12T19:07:17.189Z,0
2017-10-12T19:07:57.586Z,0
2017-10-12T19:08:38.002Z,0
2017-10-12T19:09:18.390Z,0
2017-10-12T19:09:58.756Z,0
2017-10-12T19:10:39.148Z,0
2017-10-12T19:11:19.625Z,0
2017-10-12T19:12:00.045Z,0
2017-10-12T19:12:40.412Z,0
2017-10-12T19:13:20.873Z,0
2017-10-12T19:14:01.242Z,0
2017-10-12T19:14:41.679Z,0
2017-10-12T19:15:22.140Z,0
2017-10-12T19:16:02.537Z,0
2017-10-12T19:16:42.999Z,0
2017-10-12T19:17:23.402Z,0
2017-10-12T19:18:03.774Z,0
2017-10-12T19:18:44.283Z,0
2017-10-12T19:19:24.704Z,0
2017-10-12T19:20:05.092Z,0
2017-10-12T19:20:45.528Z,0
2017-10-12T19:21:25.908Z,0
2017-10-12T19:22:06.298Z,0
2017-10-12T19:22:46.709Z,0
2017-10-12T19:23:27.103Z,0
2017-10-12T19:24:07.513Z,0
2017-10-12T19:24:47.906Z,0
2017-10-12T19:25:28.334Z,0
2017-10-12T19:26:08.796Z,0
2017-10-12T19:26:49.210Z,0
2017-10-12T19:27:29.576Z,0
2017-10-12T19:28:50.471Z,0
2017-10-12T19:29:30.798Z,0
2017-10-12T19:30:11.298Z,0
2017-10-12T19:30:51.703Z,0
2017-10-12T19:31:32.113Z,0
2017-10-12T19:32:12.547Z,0
2017-10-12T19:32:52.936Z,0
2017-10-12T19:33:33.362Z,0
2017-10-12T19:34:13.724Z,0
2017-10-12T19:34:54.211Z,0
2017-10-12T19:35:34.615Z,0
2017-10-12T19:36:15.042Z,0
2017-10-12T19:36:55.449Z,0
2017-10-12T19:37:35.847Z,0
2017-10-12T19:38:16.293Z,0
2017-10-12T19:38:56.732Z,0
2017-10-12T19:39:37.184Z,0
2017-10-12T19:40:17.582Z,0
2017-10-12T19:41:38.467Z,0
2017-10-12T19:42:18.882Z,0
2017-10-12T19:42:59.284Z,0
2017-10-12T19:43:39.739Z,0
2017-10-12T19:44:20.177Z,0
2017-10-12T19:45:00.534Z,0
2017-10-12T19:45:40.957Z,0
2017-10-12T19:46:21.396Z,0
2017-10-12T19:47:01.869Z,0
2017-10-12T19:47:42.237Z,0
2017-10-12T19:48:22.653Z,0
2017-10-12T19:49:03.157Z,0
2017-10-12T19:49:43.541Z,0
2017-10-12T19:50:23.901Z,0
2017-10-12T19:51:33.991Z,0
2017-10-12T19:51:44.783Z,0
2017-10-12T19:52:25.141Z,0
2017-10-12T19:53:05.565Z,0
2017-10-12T19:53:45.936Z,0
2017-10-12T19:54:26.329Z,0
2017-10-12T19:55:06.735Z,0
2017-10-12T19:55:47.178Z,0
2017-10-12T19:56:27.641Z,0
2017-10-12T19:57:08.001Z,0
2017-10-12T19:57:48.542Z,0
2017-10-12T19:59:09.402Z,0
2017-10-12T19:59:49.909Z,0
2017-10-12T20:00:30.267Z,0
2017-10-12T20:01:10.722Z,0
2017-10-12T20:01:51.111Z,0
2017-10-12T20:02:31.520Z,0
2017-10-12T20:03:11.965Z,0
2017-10-12T20:03:52.402Z,0
2017-10-12T20:04:32.849Z,0
2017-10-12T20:05:13.261Z,0
2017-10-12T20:05:53.709Z,0
2017-10-12T20:06:34.147Z,0
2017-10-12T20:07:14.583Z,0
2017-10-12T20:07:55.025Z,0
2017-10-12T20:08:35.488Z,0
2017-10-12T20:09:16.025Z,0
2017-10-12T20:09:56.451Z,0
2017-10-12T20:10:36.872Z,0
2017-10-12T20:11:17.287Z,0
2017-10-12T20:11:57.697Z,0
2017-10-12T20:12:38.141Z,0
2017-10-12T20:13:18.519Z,0
2017-10-12T20:14:39.315Z,0
2017-10-12T20:15:19.702Z,0
2017-10-12T20:16:00.103Z,0
2017-10-12T20:16:40.544Z,0
2017-10-12T20:17:20.995Z,0
2017-10-12T20:18:01.464Z,0
2017-10-12T20:18:41.721Z,0
2017-10-12T20:19:22.241Z,0
2017-10-12T20:20:02.650Z,0
2017-10-12T20:20:43.036Z,0
2017-10-12T20:21:23.481Z,0
2017-10-12T20:22:03.851Z,0
2017-10-12T20:22:44.268Z,0
2017-10-12T20:23:24.779Z,0
2017-10-12T20:24:45.535Z,0
2017-10-12T20:25:25.934Z,0
2017-10-12T20:26:06.322Z,0
2017-10-12T20:26:46.749Z,0
2017-10-12T20:27:27.128Z,0
2017-10-12T20:28:07.550Z,0
2017-10-12T20:28:47.916Z,0
2017-10-12T20:30:08.724Z,0
2017-10-12T20:30:49.213Z,0
2017-10-12T20:31:29.595Z,0
2017-10-12T20:32:10.017Z,0
2017-10-12T20:32:50.420Z,0
2017-10-12T20:33:30.817Z,0
2017-10-12T20:34:11.263Z,0
2017-10-12T20:34:51.738Z,0
2017-10-12T20:35:32.155Z,0
2017-10-12T20:36:12.554Z,0
2017-10-12T20:36:53.002Z,0
2017-10-12T20:37:33.652Z,0
2017-10-12T20:38:13.862Z,0
2017-10-12T20:38:54.281Z,0
2017-10-12T20:39:34.849Z,0
2017-10-12T20:40:15.232Z,0
2017-10-12T20:40:55.660Z,0
2017-10-12T20:41:36.096Z,0
2017-10-12T20:42:16.639Z,0
2017-10-12T20:42:56.984Z,0
2017-10-12T20:43:37.444Z,0
2017-10-12T20:44:19.030Z,0
2017-10-12T20:44:59.881Z,0
2017-10-12T20:45:40.426Z,0
2017-10-12T20:46:20.625Z,0
2017-10-12T20:47:02.100Z,0
2017-10-12T20:47:42.521Z,0
2017-10-12T20:48:22.910Z,0
2017-10-12T20:49:03.518Z,0
2017-10-12T20:51:42.745Z,0
2017-10-12T20:52:35.486Z,0
2017-10-12T20:53:27.934Z,0
2017-10-12T20:54:20.422Z,0
2017-10-12T20:55:14.238Z,0
2017-10-12T20:56:06.742Z,0
2017-10-12T20:56:58.842Z,0
2017-10-12T20:57:51.360Z,0
2017-10-12T20:58:47.877Z,0
2017-10-12T20:59:41.042Z,0
2017-10-12T21:00:34.275Z,0
2017-10-12T21:01:27.064Z,0
2017-10-12T21:02:49.799Z,0
2017-10-12T21:03:13.392Z,0
2017-10-12T21:04:06.146Z,0
2017-10-12T21:04:58.359Z,0
2017-10-12T21:05:50.839Z,0
2017-10-12T21:06:44.851Z,0
2017-10-12T21:07:37.336Z,0
2017-10-12T21:08:29.788Z,0
2017-10-12T21:09:21.896Z,0
2017-10-12T21:10:14.162Z,0
2017-10-12T21:11:06.298Z,0
2017-10-12T21:11:58.857Z,0
2017-10-12T21:12:52.207Z,0
2017-10-12T21:13:45.260Z,0
2017-10-12T21:14:38.119Z,0
2017-10-12T21:15:30.435Z,0
2017-10-12T21:16:22.504Z,0
2017-10-12T21:17:14.750Z,0
2017-10-12T21:18:07.476Z,0
2017-10-12T21:18:59.799Z,0
2017-10-12T21:19:51.950Z,0
2017-10-12T21:20:44.364Z,0
2017-10-12T21:21:36.789Z,0
2017-10-12T21:22:28.850Z,0
2017-10-12T21:23:21.849Z,0
2017-10-12T21:24:14.165Z,0
2017-10-12T21:25:06.239Z,0
2017-10-12T21:25:58.521Z,0
2017-10-12T21:26:50.859Z,0
2017-10-12T21:27:40.015Z,0
2017-10-12T21:28:20.332Z,0
2017-10-12T21:29:00.818Z,0
2017-10-12T21:29:41.257Z,0
2017-10-12T21:30:21.608Z,0
2017-10-12T21:31:02.126Z,0
2017-10-12T21:31:42.405Z,0
2017-10-12T21:32:22.971Z,0
2017-10-12T21:33:03.262Z,0
2017-10-12T21:33:43.782Z,0
2017-10-12T21:34:24.424Z,0
2017-10-12T21:35:04.914Z,0
2017-10-12T21:35:45.355Z,0
2017-10-12T21:36:25.752Z,0
2017-10-12T21:37:06.967Z,0
2017-10-12T21:37:47.346Z,0
2017-10-12T21:38:27.835Z,0
2017-10-12T21:39:08.357Z,0
2017-10-12T21:39:48.674Z,0
2017-10-12T21:40:29.105Z,0
2017-10-12T21:41:09.612Z,0
2017-10-12T21:41:49.984Z,0
2017-10-12T21:42:30.465Z,0
2017-10-12T21:43:10.937Z,0
2017-10-12T21:43:51.374Z,0
2017-10-12T21:44:31.936Z,0
2017-10-12T21:45:12.282Z,0
2017-10-12T21:45:52.754Z,0
2017-10-12T21:46:33.175Z,0
2017-10-12T21:47:13.599Z,0
2017-10-12T21:47:54.010Z,0
2017-10-12T21:48:34.529Z,0
2017-10-12T21:49:15.088Z,0
2017-10-12T21:49:55.480Z,0
2017-10-12T21:50:35.808Z,0
2017-10-12T21:51:16.297Z,0
2017-10-12T21:51:56.739Z,0
2017-10-12T21:52:37.188Z,0
2017-10-12T21:53:17.527Z,0
2017-10-12T21:53:57.924Z,0
2017-10-12T21:54:38.440Z,0
2017-10-12T21:55:18.816Z,0
2017-10-12T21:55:59.193Z,0
2017-10-12T21:56:39.664Z,0
2017-10-12T21:57:20.189Z,0
2017-10-12T21:58:00.684Z,0
2017-10-12T21:58:41.037Z,0
2017-10-12T21:59:21.589Z,0
2017-10-12T22:00:02.029Z,0
2017-10-12T22:00:42.573Z,0
2017-10-12T22:01:22.843Z,0
2017-10-12T22:02:03.286Z,0
2017-10-12T22:02:43.641Z,0
2017-10-12T22:03:24.054Z,0
2017-10-12T22:04:04.525Z,0
2017-10-12T22:04:44.933Z,0
2017-10-12T22:05:25.295Z,0
2017-10-12T22:06:05.778Z,0
2017-10-12T22:06:46.161Z,0
2017-10-12T22:07:26.555Z,0
2017-10-12T22:08:06.986Z,0
2017-10-12T22:08:47.428Z,0
2017-10-12T22:09:27.924Z,0
2017-10-12T22:10:08.277Z,0
2017-10-12T22:10:48.665Z,0
2017-10-12T22:11:29.142Z,0
2017-10-12T22:12:09.463Z,0
2017-10-12T22:12:49.831Z,0
2017-10-12T22:13:30.259Z,0
2017-10-12T22:14:10.772Z,0
2017-10-12T22:14:51.256Z,0
2017-10-12T22:15:31.662Z,0
2017-10-12T22:16:12.088Z,0
2017-10-12T22:16:52.645Z,0
2017-10-12T22:17:33.061Z,0
2017-10-12T22:18:13.525Z,0
2017-10-12T22:18:54.004Z,0
2017-10-12T22:19:34.422Z,0
2017-10-12T22:20:14.911Z,0
2017-10-12T22:20:55.391Z,0
2017-10-12T22:21:35.776Z,0
2017-10-12T22:22:16.215Z,0
2017-10-12T22:22:56.634Z,0
2017-10-12T22:23:37.152Z,0
2017-10-12T22:24:17.556Z,0
2017-10-12T22:24:58.141Z,0
2017-10-12T22:25:38.578Z,0
2017-10-12T22:26:18.907Z,0
2017-10-12T22:26:59.394Z,0
2017-10-12T22:27:39.846Z,0
2017-10-12T22:28:20.260Z,0
2017-10-12T22:29:00.776Z,0
2017-10-12T22:29:41.194Z,0
2017-10-12T22:30:21.643Z,0
2017-10-12T22:31:01.989Z,0
2017-10-12T22:31:42.418Z,0
2017-10-12T22:32:22.855Z,0
2017-10-12T22:33:03.249Z,0
2017-10-12T22:33:43.639Z,0
2017-10-12T22:34:24.189Z,0
2017-10-12T22:35:04.623Z,0
2017-10-12T22:35:45.067Z,0
2017-10-12T22:36:25.566Z,0
2017-10-12T22:37:06.080Z,0
2017-10-12T22:37:46.475Z,0
2017-10-12T22:38:26.885Z,0
2017-10-12T22:39:07.280Z,0
2017-10-12T22:39:47.664Z,0
2017-10-12T22:40:28.082Z,0
2017-10-12T22:41:08.553Z,0
2017-10-12T22:41:49.025Z,0
2017-10-12T22:42:29.540Z,0
2017-10-12T22:43:10.009Z,0
2017-10-12T22:43:50.388Z,0
2017-10-12T22:44:30.789Z,0
2017-10-12T22:45:11.251Z,0
2017-10-12T22:45:51.603Z,0
2017-10-12T22:46:32.278Z,0
2017-10-12T22:47:12.646Z,0
2017-10-12T22:47:52.966Z,0
2017-10-12T22:48:33.418Z,0
2017-10-12T22:49:13.917Z,0
2017-10-12T22:49:54.266Z,0
2017-10-12T22:50:34.641Z,0
2017-10-12T22:51:15.006Z,0
2017-10-12T22:51:55.492Z,0
2017-10-12T22:52:35.967Z,0
2017-10-12T22:53:16.347Z,0
2017-10-12T22:53:56.683Z,0
2017-10-12T22:54:37.142Z,0
2017-10-12T22:55:17.602Z,0
2017-10-12T22:55:57.948Z,0
2017-10-12T22:56:38.296Z,0
2017-10-12T22:57:18.674Z,0
2017-10-12T22:57:59.256Z,0
2017-10-12T22:58:39.600Z,0
2017-10-12T22:59:20.048Z,0
2017-10-12T23:00:00.434Z,0
2017-10-12T23:00:40.960Z,0
2017-10-12T23:01:21.285Z,0
2017-10-12T23:02:01.808Z,0
2017-10-12T23:02:42.183Z,0
2017-10-12T23:03:22.807Z,0
2017-10-12T23:04:03.199Z,0
2017-10-12T23:04:43.578Z,0
2017-10-12T23:05:23.975Z,0
2017-10-12T23:06:04.461Z,0
2017-10-12T23:06:45.055Z,0
2017-10-12T23:07:25.348Z,0
2017-10-12T23:08:05.713Z,0
2017-10-12T23:08:46.236Z,0
2017-10-12T23:09:26.817Z,0
2017-10-12T23:10:07.061Z,0
2017-10-12T23:10:47.502Z,0
2017-10-12T23:11:27.959Z,0
2017-10-12T23:12:08.333Z,0
2017-10-12T23:12:48.793Z,0
2017-10-12T23:13:29.285Z,0
2017-10-12T23:14:09.856Z,0
2017-10-12T23:14:50.291Z,0
2017-10-12T23:15:30.752Z,0
2017-10-12T23:16:11.259Z,0
2017-10-12T23:16:51.625Z,0
2017-10-12T23:17:32.073Z,0
2017-10-12T23:18:12.462Z,0
2017-10-12T23:18:52.926Z,0
2017-10-12T23:19:33.302Z,0
2017-10-12T23:20:13.714Z,0
2017-10-12T23:20:54.254Z,0
2017-10-12T23:21:34.634Z,0
2017-10-12T23:22:14.947Z,0
2017-10-12T23:22:55.412Z,0
2017-10-12T23:23:35.761Z,0
2017-10-12T23:24:16.234Z,0
2017-10-12T23:24:56.637Z,0
2017-10-12T23:25:37.072Z,0
2017-10-12T23:26:17.444Z,0
2017-10-12T23:26:57.844Z,0
2017-10-12T23:27:38.254Z,0
2017-10-12T23:28:18.624Z,0
2017-10-12T23:28:59.061Z,0
2017-10-12T23:29:39.418Z,0
2017-10-12T23:30:19.936Z,0
2017-10-12T23:31:00.422Z,0
2017-10-12T23:31:40.771Z,0
2017-10-12T23:32:21.242Z,0
2017-10-12T23:33:01.768Z,0
2017-10-12T23:33:42.176Z,0
2017-10-12T23:34:22.583Z,0
2017-10-12T23:35:02.995Z,0
2017-10-12T23:35:43.426Z,0
2017-10-12T23:36:23.988Z,0
2017-10-12T23:37:04.414Z,0
2017-10-12T23:37:44.725Z,0
2017-10-12T23:38:25.219Z,0
2017-10-12T23:39:05.644Z,0
2017-10-12T23:39:46.053Z,0
2017-10-12T23:40:26.461Z,0
2017-10-12T23:41:06.846Z,0
2017-10-12T23:41:47.204Z,0
2017-10-12T23:42:27.802Z,0
2017-10-12T23:43:08.139Z,0
2017-10-12T23:43:48.708Z,0
2017-10-12T23:44:29.261Z,0
2017-10-12T23:45:09.632Z,0
2017-10-12T23:45:50.095Z,0
2017-10-12T23:46:30.530Z,0
2017-10-12T23:47:11.036Z,0
2017-10-12T23:47:51.400Z,0
2017-10-12T23:48:31.750Z,0
2017-10-12T23:49:12.202Z,0
2017-10-12T23:49:52.671Z,0
2017-10-12T23:50:33.092Z,0
2017-10-12T23:51:13.486Z,0
2017-10-12T23:51:53.884Z,0
2017-10-12T23:52:34.272Z,0
2017-10-12T23:53:14.673Z,0
2017-10-12T23:53:55.173Z,0
2017-10-12T23:54:35.446Z,0
2017-10-12T23:55:16.048Z,0
2017-10-12T23:55:56.451Z,0
2017-10-12T23:56:36.825Z,0
2017-10-12T23:57:17.294Z,0
2017-10-12T23:57:57.653Z,0
2017-10-12T23:58:38.215Z,0
2017-10-12T23:59:18.617Z,0
2017-10-12T23:59:59.063Z,0
